Time;durP1;ratioP1;P1;durP2;ratioP2;P2;SDS_P1;SDS_P2;PMS_P1;PMS_P2;Temp;Humidity;BMP_temperature;BMP_pressure;BME280_temperature;BME280_humidity;BME280_pressure;Samples;Min_cycle;Max_cycle;Signal;HPM_P1;HPM_P2
2021/04/29 00:00:10;;;;;;;30.20;23.35;;;;;;;;;;4992130;28;20030;-59
2021/04/29 00:02:36;;;;;;;32.10;23.02;;;;;;;;;;4989595;28;20030;-59
2021/04/29 00:05:03;;;;;;;25.73;21.23;;;;;;;;;;4990719;28;20113;-59
2021/04/29 00:07:29;;;;;;;25.38;20.45;;;;;;;;;;4989138;28;20037;-59
2021/04/29 00:09:55;;;;;;;26.70;21.30;;;;;;;;;;4989597;28;20027;-59
2021/04/29 00:12:21;;;;;;;28.92;22.02;;;;;;;;;;4992671;28;20034;-59
2021/04/29 00:14:46;;;;;;;27.92;22.48;;;;;;;;;;4989936;28;20027;-60
2021/04/29 00:17:12;;;;;;;30.23;23.52;;;;;;;;;;4974078;28;20478;-59
2021/04/29 00:19:38;;;;;;;29.65;22.42;;;;;;;;;;4989082;28;20085;-60
2021/04/29 00:22:04;;;;;;;29.95;21.45;;;;;;;;;;4989436;28;20102;-59
2021/04/29 00:24:30;;;;;;;33.22;24.98;;;;;;;;;;4991099;28;20054;-59
2021/04/29 00:26:56;;;;;;;35.33;25.25;;;;;;;;;;4989994;28;20084;-60
2021/04/29 00:29:22;;;;;;;29.95;23.25;;;;;;;;;;4988989;28;20030;-59
2021/04/29 00:31:48;;;;;;;31.95;24.92;;;;;;;;;;4988943;28;20018;-60
2021/04/29 00:34:14;;;;;;;36.13;25.88;;;;;;;;;;4989419;28;20536;-60
2021/04/29 00:36:40;;;;;;;35.72;27.15;;;;;;;;;;4990421;28;20472;-59
2021/04/29 00:39:06;;;;;;;32.40;24.42;;;;;;;;;;4990786;28;20015;-59
2021/04/29 00:41:32;;;;;;;32.97;24.42;;;;;;;;;;4989134;28;20022;-59
2021/04/29 00:43:58;;;;;;;31.73;24.08;;;;;;;;;;4989062;28;20172;-59
2021/04/29 00:46:24;;;;;;;29.40;20.92;;;;;;;;;;4988716;28;20022;-59
2021/04/29 00:48:50;;;;;;;28.48;21.75;;;;;;;;;;4989338;28;20037;-59
2021/04/29 00:51:18;;;;;;;30.52;23.40;;;;;;;;;;4994931;28;20026;-59
2021/04/29 00:53:45;;;;;;;33.20;24.57;;;;;;;;;;4995844;28;20035;-59
2021/04/29 00:56:11;;;;;;;38.30;26.35;;;;;;;;;;4995117;28;20061;-59
2021/04/29 00:58:38;;;;;;;34.72;25.55;;;;;;;;;;4995336;28;20470;-59
2021/04/29 01:01:05;;;;;;;38.45;26.30;;;;;;;;;;4995163;28;20011;-60
2021/04/29 01:03:51;;;;;;;41.13;27.38;;;;;;;;;;4996989;28;20040;-59
2021/04/29 01:06:19;;;;;;;39.28;26.48;;;;;;;;;;4994958;28;20038;-59
2021/04/29 01:08:45;;;;;;;37.83;26.95;;;;;;;;;;4996931;28;20089;-59
2021/04/29 01:11:16;;;;;;;39.65;26.55;;;;;;;;;;4995136;28;20022;-59
2021/04/29 01:13:44;;;;;;;40.47;26.35;;;;;;;;;;4995049;28;20548;-59
2021/04/29 01:16:10;;;;;;;;;;;;;;;;;;4995723;28;20514;-59
2021/04/29 01:18:36;;;;;;;32.10;22.35;;;;;;;;;;4997046;28;19948;-59
2021/04/29 01:21:05;;;;;;;29.77;22.33;;;;;;;;;;4996590;28;20433;-58
2021/04/29 01:23:41;;;;;;;28.85;22.35;;;;;;;;;;4994758;28;20046;-59
2021/04/29 01:26:14;;;;;;;35.67;25.10;;;;;;;;;;4994622;28;20377;-60
2021/04/29 01:28:40;;;;;;;40.03;28.23;;;;;;;;;;4994876;28;20033;-59
2021/04/29 01:31:07;;;;;;;39.78;28.02;;;;;;;;;;4995174;28;20030;-60
2021/04/29 01:33:34;;;;;;;39.25;27.20;;;;;;;;;;4980081;28;20025;-59
2021/04/29 01:36:01;;;;;;;45.08;30.65;;;;;;;;;;4996126;28;20457;-59
2021/04/29 01:38:27;;;;;;;43.75;29.27;;;;;;;;;;4994512;28;20038;-59
2021/04/29 01:40:54;;;;;;;41.80;27.80;;;;;;;;;;4994893;28;20057;-59
2021/04/29 01:43:20;;;;;;;36.05;27.48;;;;;;;;;;4995177;28;20391;-59
2021/04/29 01:45:46;;;;;;;35.78;27.25;;;;;;;;;;4995690;28;20034;-59
2021/04/29 01:48:12;;;;;;;43.22;28.40;;;;;;;;;;4997792;28;20025;-59
2021/04/29 01:50:38;;;;;;;43.47;29.63;;;;;;;;;;4994606;28;20067;-59
2021/04/29 01:53:05;;;;;;;46.30;29.17;;;;;;;;;;4995139;28;20037;-59
2021/04/29 01:55:32;;;;;;;43.78;29.40;;;;;;;;;;4994375;28;20464;-59
2021/04/29 01:57:58;;;;;;;43.00;28.27;;;;;;;;;;4994623;28;20039;-59
2021/04/29 02:00:24;;;;;;;38.92;27.35;;;;;;;;;;4997088;28;20062;-59
2021/04/29 02:02:50;;;;;;;39.35;26.02;;;;;;;;;;4994790;28;20064;-59
2021/04/29 02:05:16;;;;;;;34.75;24.50;;;;;;;;;;4991462;28;20034;-59
2021/04/29 02:07:43;;;;;;;33.42;24.48;;;;;;;;;;4991509;28;20106;-59
2021/04/29 02:10:10;;;;;;;31.95;23.55;;;;;;;;;;4991477;28;20037;-59
2021/04/29 02:12:37;;;;;;;28.70;22.65;;;;;;;;;;4993621;28;20544;-59
2021/04/29 02:15:05;;;;;;;27.85;22.48;;;;;;;;;;4993497;28;20063;-59
2021/04/29 02:17:34;;;;;;;30.45;23.17;;;;;;;;;;4991585;28;20034;-59
2021/04/29 02:20:02;;;;;;;29.08;22.42;;;;;;;;;;4991233;28;20105;-59
2021/04/29 02:22:29;;;;;;;31.60;23.13;;;;;;;;;;4991684;28;20422;-59
2021/04/29 02:24:55;;;;;;;31.75;23.70;;;;;;;;;;4991152;28;20043;-59
2021/04/29 02:27:22;;;;;;;34.80;24.65;;;;;;;;;;4994012;28;20044;-59
2021/04/29 02:29:48;;;;;;;37.53;28.05;;;;;;;;;;4991983;28;20034;-59
2021/04/29 02:32:18;;;;;;;39.55;26.80;;;;;;;;;;4991474;28;20041;-60
2021/04/29 02:34:45;;;;;;;38.92;26.67;;;;;;;;;;4991118;28;20030;-59
2021/04/29 02:37:11;;;;;;;40.30;26.92;;;;;;;;;;4991500;28;20065;-59
2021/04/29 02:39:37;;;;;;;44.13;29.23;;;;;;;;;;4992705;28;20026;-59
2021/04/29 02:42:04;;;;;;;43.95;26.98;;;;;;;;;;4992900;28;20041;-60
2021/04/29 02:44:30;;;;;;;44.42;26.67;;;;;;;;;;4990417;28;20438;-60
2021/04/29 02:46:56;;;;;;;41.42;27.52;;;;;;;;;;4991173;28;20038;-60
2021/04/29 02:49:23;;;;;;;37.30;25.27;;;;;;;;;;4991203;28;20026;-59
2021/04/29 02:51:49;;;;;;;37.75;27.67;;;;;;;;;;4990919;28;20030;-62
2021/04/29 02:54:17;;;;;;;35.63;25.27;;;;;;;;;;4994137;28;20102;-62
2021/04/29 02:56:43;;;;;;;37.53;26.73;;;;;;;;;;4990933;28;20038;-63
2021/04/29 02:59:09;;;;;;;43.10;28.27;;;;;;;;;;4990447;28;20030;-62
2021/04/29 03:01:36;;;;;;;44.72;28.40;;;;;;;;;;4990362;28;20023;-62
2021/04/29 03:04:02;;;;;;;47.70;28.85;;;;;;;;;;4991128;28;20073;-63
2021/04/29 03:06:28;;;;;;;46.63;28.48;;;;;;;;;;4992970;28;20026;-62
2021/04/29 03:08:54;;;;;;;46.03;28.13;;;;;;;;;;4991249;28;20023;-62
2021/04/29 03:11:20;;;;;;;43.55;27.92;;;;;;;;;;4990087;28;20034;-62
2021/04/29 03:13:47;;;;;;;41.95;27.95;;;;;;;;;;4990241;28;20041;-63
2021/04/29 03:16:13;;;;;;;40.58;27.65;;;;;;;;;;4990577;28;20026;-64
2021/04/29 03:18:39;;;;;;;31.45;24.10;;;;;;;;;;4992181;28;20072;-64
2021/04/29 03:21:06;;;;;;;30.42;23.23;;;;;;;;;;4982364;28;20085;-64
2021/04/29 03:23:32;;;;;;;29.70;23.88;;;;;;;;;;4984529;28;20053;-64
2021/04/29 03:25:58;;;;;;;31.33;23.73;;;;;;;;;;4984387;28;20433;-64
2021/04/29 03:28:24;;;;;;;35.65;26.20;;;;;;;;;;4990454;28;20030;-64
2021/04/29 03:30:50;;;;;;;35.70;26.58;;;;;;;;;;4983949;28;20034;-64
2021/04/29 03:33:16;;;;;;;43.75;29.33;;;;;;;;;;4983663;28;20027;-64
2021/04/29 03:35:42;;;;;;;39.10;26.92;;;;;;;;;;4987233;28;20018;-64
2021/04/29 03:38:08;;;;;;;36.30;25.90;;;;;;;;;;4984785;28;20046;-64
2021/04/29 03:40:35;;;;;;;35.25;25.48;;;;;;;;;;4984638;28;20055;-64
2021/04/29 03:43:01;;;;;;;34.58;25.17;;;;;;;;;;4989813;28;20457;-64
2021/04/29 03:45:27;;;;;;;37.95;25.60;;;;;;;;;;4992173;28;20529;-63
2021/04/29 03:47:54;;;;;;;34.13;24.65;;;;;;;;;;4990787;28;20037;-64
2021/04/29 03:50:20;;;;;;;38.20;26.30;;;;;;;;;;4989915;28;20041;-64
2021/04/29 03:52:46;;;;;;;39.60;25.92;;;;;;;;;;4989724;28;20026;-64
2021/04/29 03:55:12;;;;;;;39.53;26.77;;;;;;;;;;4988054;28;20022;-64
2021/04/29 03:57:38;;;;;;;41.22;25.35;;;;;;;;;;4990548;28;20081;-64
2021/04/29 04:00:06;;;;;;;38.50;25.55;;;;;;;;;;4991665;28;20032;-64
2021/04/29 04:02:32;;;;;;;38.30;24.70;;;;;;;;;;4989348;28;20057;-64
2021/04/29 04:04:58;;;;;;;35.78;23.80;;;;;;;;;;4989669;28;20065;-64
2021/04/29 04:07:24;;;;;;;36.97;24.52;;;;;;;;;;4989163;28;20382;-64
2021/04/29 04:09:50;;;;;;;38.55;25.23;;;;;;;;;;4989148;28;20578;-64
2021/04/29 04:12:16;;;;;;;42.42;26.25;;;;;;;;;;4992703;28;20031;-64
2021/04/29 04:14:42;;;;;;;42.75;26.35;;;;;;;;;;4989621;28;20030;-64
2021/04/29 04:17:08;;;;;;;38.92;26.70;;;;;;;;;;4989343;28;20048;-64
2021/04/29 04:19:34;;;;;;;38.33;24.45;;;;;;;;;;4989342;28;20385;-64
2021/04/29 04:22:00;;;;;;;43.83;26.20;;;;;;;;;;4988763;28;20058;-63
2021/04/29 04:24:26;;;;;;;39.22;25.25;;;;;;;;;;4991618;28;20081;-63
2021/04/29 04:26:52;;;;;;;38.80;25.60;;;;;;;;;;4989842;28;20041;-63
2021/04/29 04:29:17;;;;;;;41.35;25.92;;;;;;;;;;4989351;28;20022;-64
2021/04/29 04:31:43;;;;;;;41.53;26.20;;;;;;;;;;4989194;28;20117;-64
2021/04/29 04:34:09;;;;;;;39.88;24.38;;;;;;;;;;4988983;28;20042;-63
2021/04/29 04:36:36;;;;;;;41.05;25.73;;;;;;;;;;4990643;28;20042;-64
2021/04/29 04:39:02;;;;;;;39.75;25.15;;;;;;;;;;4990855;28;20066;-64
2021/04/29 04:41:29;;;;;;;39.17;25.00;;;;;;;;;;4988931;28;20031;-64
2021/04/29 04:43:55;;;;;;;40.85;26.17;;;;;;;;;;4988733;28;20410;-64
2021/04/29 04:46:21;;;;;;;39.03;24.92;;;;;;;;;;4989024;28;20410;-63
2021/04/29 04:48:47;;;;;;;32.65;23.20;;;;;;;;;;4956379;28;20033;-64
2021/04/29 04:51:13;;;;;;;29.92;20.92;;;;;;;;;;4992207;28;20662;-64
2021/04/29 04:53:39;;;;;;;31.77;23.33;;;;;;;;;;4988871;28;20041;-64
2021/04/29 04:56:05;;;;;;;32.55;23.20;;;;;;;;;;4988440;28;20031;-65
2021/04/29 04:58:31;;;;;;;32.20;23.17;;;;;;;;;;4988947;28;20018;-65
2021/04/29 05:00:57;;;;;;;38.78;25.05;;;;;;;;;;4988925;28;20030;-64
2021/04/29 05:03:23;;;;;;;40.00;25.10;;;;;;;;;;4990841;28;20103;-64
2021/04/29 05:05:49;;;;;;;38.97;26.00;;;;;;;;;;4989840;28;20049;-64
2021/04/29 05:08:15;;;;;;;38.20;23.98;;;;;;;;;;4988632;28;20026;-64
2021/04/29 05:10:41;;;;;;;41.55;25.48;;;;;;;;;;4973957;28;20030;-64
2021/04/29 05:13:07;;;;;;;40.25;25.17;;;;;;;;;;4989004;28;20037;-64
2021/04/29 05:15:34;;;;;;;34.85;24.38;;;;;;;;;;4973109;28;20022;-64
2021/04/29 05:18:00;;;;;;;32.90;23.35;;;;;;;;;;4989635;28;20382;-64
2021/04/29 05:20:27;;;;;;;30.95;21.73;;;;;;;;;;4973653;28;20502;-63
2021/04/29 05:22:53;;;;;;;27.90;21.05;;;;;;;;;;4988541;28;20048;-63
2021/04/29 05:25:19;;;;;;;29.10;20.52;;;;;;;;;;4988663;28;20533;-63
2021/04/29 05:27:45;;;;;;;26.88;20.15;;;;;;;;;;4988716;28;20386;-63
2021/04/29 05:30:11;;;;;;;24.25;18.60;;;;;;;;;;4991556;28;20398;-63
2021/04/29 05:32:37;;;;;;;27.67;20.98;;;;;;;;;;4987840;28;20085;-63
2021/04/29 05:35:04;;;;;;;32.03;23.67;;;;;;;;;;4988698;28;20030;-63
2021/04/29 05:37:30;;;;;;;29.85;22.00;;;;;;;;;;4988289;28;20124;-63
2021/04/29 05:39:56;;;;;;;31.80;22.27;;;;;;;;;;4992337;28;20053;-64
2021/04/29 05:42:22;;;;;;;29.98;22.63;;;;;;;;;;4994808;28;20104;-63
2021/04/29 05:44:48;;;;;;;31.55;22.23;;;;;;;;;;4993004;28;20021;-63
2021/04/29 05:47:13;;;;;;;29.23;21.95;;;;;;;;;;4991426;28;20508;-63
2021/04/29 05:49:42;;;;;;;27.75;20.45;;;;;;;;;;4990817;28;20030;-63
2021/04/29 05:52:08;;;;;;;;;;;;;;;;;;4991730;28;20065;-63
2021/04/29 05:54:34;;;;;;;27.75;19.48;;;;;;;;;;4993210;28;20324;-63
2021/04/29 05:57:00;;;;;;;31.20;22.77;;;;;;;;;;4992203;28;20027;-63
2021/04/29 05:59:26;;;;;;;32.35;23.92;;;;;;;;;;4991065;28;20030;-64
2021/04/29 06:01:52;;;;;;;40.05;26.83;;;;;;;;;;4991131;28;20038;-64
2021/04/29 06:04:20;;;;;;;40.85;27.08;;;;;;;;;;4991860;28;20023;-64
2021/04/29 06:06:47;;;;;;;41.53;27.50;;;;;;;;;;4992037;28;20038;-64
2021/04/29 06:09:13;;;;;;;42.35;28.52;;;;;;;;;;4994900;28;20030;-64
2021/04/29 06:11:39;;;;;;;39.50;26.85;;;;;;;;;;4991659;28;20029;-64
2021/04/29 06:14:05;;;;;;;38.72;25.75;;;;;;;;;;4991882;28;20113;-64
2021/04/29 06:16:31;;;;;;;40.45;24.92;;;;;;;;;;4991178;28;20125;-64
2021/04/29 06:18:57;;;;;;;37.47;25.55;;;;;;;;;;4991289;28;20475;-64
2021/04/29 06:21:23;;;;;;;29.63;21.85;;;;;;;;;;4994105;28;20034;-64
2021/04/29 06:23:50;;;;;;;29.88;21.83;;;;;;;;;;4991734;28;20153;-64
2021/04/29 06:26:16;;;;;;;30.92;22.20;;;;;;;;;;4991614;28;20030;-64
2021/04/29 06:28:42;;;;;;;30.58;21.40;;;;;;;;;;4991104;28;20562;-64
2021/04/29 06:31:08;;;;;;;32.88;23.30;;;;;;;;;;4991254;28;20077;-64
2021/04/29 06:33:34;;;;;;;27.60;20.88;;;;;;;;;;4992917;28;20533;-64
2021/04/29 06:36:00;;;;;;;37.55;24.13;;;;;;;;;;4992412;28;20043;-64
2021/04/29 06:38:26;;;;;;;33.50;24.38;;;;;;;;;;4990730;28;20029;-64
2021/04/29 06:40:52;;;;;;;38.22;26.23;;;;;;;;;;4991211;28;20030;-64
2021/04/29 06:43:19;;;;;;;41.65;26.65;;;;;;;;;;4991322;28;20045;-64
2021/04/29 06:45:44;;;;;;;38.05;24.27;;;;;;;;;;4991875;28;20031;-65
2021/04/29 06:48:11;;;;;;;34.45;25.02;;;;;;;;;;4993002;28;20076;-64
2021/04/29 06:50:38;;;;;;;33.97;23.83;;;;;;;;;;4990454;28;20031;-64
2021/04/29 06:53:04;;;;;;;29.00;20.55;;;;;;;;;;4990861;28;20034;-64
2021/04/29 06:55:30;;;;;;;28.05;20.10;;;;;;;;;;4990856;28;20501;-64
2021/04/29 06:57:56;;;;;;;26.60;19.65;;;;;;;;;;4990325;28;20539;-65
2021/04/29 07:00:24;;;;;;;29.48;20.67;;;;;;;;;;4992962;28;20022;-65
2021/04/29 07:02:50;;;;;;;29.52;20.83;;;;;;;;;;4991760;28;20030;-64
2021/04/29 07:05:16;;;;;;;18.52;14.45;;;;;;;;;;4990628;28;20541;-64
2021/04/29 07:07:42;;;;;;;17.92;13.48;;;;;;;;;;4990231;28;20034;-64
2021/04/29 07:10:09;;;;;;;16.35;12.82;;;;;;;;;;4990390;28;20030;-64
2021/04/29 07:12:35;;;;;;;17.17;13.80;;;;;;;;;;4992528;28;20038;-64
2021/04/29 07:15:01;;;;;;;18.58;14.05;;;;;;;;;;4974171;28;20026;-65
2021/04/29 07:17:27;;;;;;;20.83;14.65;;;;;;;;;;4980091;28;20039;-65
2021/04/29 07:19:53;;;;;;;24.20;17.67;;;;;;;;;;4983382;28;20026;-65
2021/04/29 07:22:19;;;;;;;20.42;15.02;;;;;;;;;;4996518;28;20046;-64
2021/04/29 07:24:45;;;;;;;14.65;11.60;;;;;;;;;;4989894;28;20050;-65
2021/04/29 07:27:11;;;;;;;17.52;13.27;;;;;;;;;;4992882;28;20049;-65
2021/04/29 07:29:37;;;;;;;17.85;13.70;;;;;;;;;;4989551;28;20478;-65
2021/04/29 07:32:04;;;;;;;17.98;13.55;;;;;;;;;;4989816;28;20144;-65
2021/04/29 07:34:30;;;;;;;21.10;15.20;;;;;;;;;;4994458;28;20058;-65
2021/04/29 07:36:58;;;;;;;17.77;13.45;;;;;;;;;;4989300;28;20054;-65
2021/04/29 07:39:24;;;;;;;19.20;14.00;;;;;;;;;;4992451;28;20025;-65
2021/04/29 07:41:50;;;;;;;19.95;13.93;;;;;;;;;;4990516;28;20492;-65
2021/04/29 07:44:16;;;;;;;18.38;13.77;;;;;;;;;;4988183;28;20053;-65
2021/04/29 07:46:42;;;;;;;16.10;12.00;;;;;;;;;;4989303;28;20430;-65
2021/04/29 07:49:08;;;;;;;17.27;12.65;;;;;;;;;;4989111;28;20097;-65
2021/04/29 07:51:34;;;;;;;12.07;9.63;;;;;;;;;;4991331;28;20108;-65
2021/04/29 07:54:03;;;;;;;13.88;10.38;;;;;;;;;;4988861;28;20038;-65
2021/04/29 07:56:29;;;;;;;12.40;10.00;;;;;;;;;;4988206;28;20027;-65
2021/04/29 07:58:55;;;;;;;12.15;9.35;;;;;;;;;;4988626;28;20034;-65
2021/04/29 08:01:21;;;;;;;18.50;11.82;;;;;;;;;;4988293;28;20025;-65
2021/04/29 08:03:47;;;;;;;14.45;11.32;;;;;;;;;;4975415;28;20026;-65
2021/04/29 08:06:13;;;;;;;18.00;12.00;;;;;;;;;;4992156;28;20395;-65
2021/04/29 08:08:39;;;;;;;15.30;12.50;;;;;;;;;;4988313;28;20422;-65
2021/04/29 08:11:05;;;;;;;16.05;12.75;;;;;;;;;;4990776;28;20030;-65
2021/04/29 08:13:31;;;;;;;17.27;13.07;;;;;;;;;;4988661;28;20026;-65
2021/04/29 08:15:58;;;;;;;17.35;13.68;;;;;;;;;;4988450;28;20023;-65
2021/04/29 08:18:25;;;;;;;16.58;12.38;;;;;;;;;;4989358;28;20030;-65
2021/04/29 08:20:51;;;;;;;14.02;11.25;;;;;;;;;;4990947;28;20482;-65
2021/04/29 08:23:17;;;;;;;14.73;11.35;;;;;;;;;;4988586;28;20134;-65
2021/04/29 08:25:43;;;;;;;12.82;9.57;;;;;;;;;;4987729;28;20385;-65
2021/04/29 08:28:09;;;;;;;11.40;9.13;;;;;;;;;;4988108;28;20034;-65
2021/04/29 08:30:35;;;;;;;13.30;9.27;;;;;;;;;;4990910;28;20038;-64
2021/04/29 08:33:02;;;;;;;6.63;4.60;;;;;;;;;;4990225;28;20031;-64
2021/04/29 08:35:29;;;;;;;7.38;5.30;;;;;;;;;;4987484;28;20038;-65
2021/04/29 08:37:55;;;;;;;7.82;5.40;;;;;;;;;;4987880;28;20037;-64
2021/04/29 08:40:22;;;;;;;7.35;5.05;;;;;;;;;;4988283;28;20101;-64
2021/04/29 08:42:48;;;;;;;6.38;5.30;;;;;;;;;;4972850;28;20426;-65
2021/04/29 08:45:14;;;;;;;7.13;5.10;;;;;;;;;;4991042;28;20081;-65
2021/04/29 08:47:41;;;;;;;7.25;5.15;;;;;;;;;;4988155;28;20092;-65
2021/04/29 08:50:07;;;;;;;6.82;5.20;;;;;;;;;;4988393;28;20038;-65
2021/04/29 08:52:33;;;;;;;7.03;5.47;;;;;;;;;;4987642;28;20073;-65
2021/04/29 08:54:59;;;;;;;7.03;5.50;;;;;;;;;;4978159;28;20066;-65
2021/04/29 08:57:26;;;;;;;8.07;5.75;;;;;;;;;;4977635;28;20111;-65
2021/04/29 08:59:53;;;;;;;7.65;5.35;;;;;;;;;;4994338;28;20026;-65
2021/04/29 09:02:38;;;;;;;5.97;5.00;;;;;;;;;;4992025;28;20058;-65
2021/04/29 09:05:10;;;;;;;6.47;4.85;;;;;;;;;;4987178;28;20058;-65
2021/04/29 09:07:36;;;;;;;8.50;4.97;;;;;;;;;;4987859;28;20077;-65
2021/04/29 09:10:02;;;;;;;6.75;5.20;;;;;;;;;;4990003;28;20037;-65
2021/04/29 09:12:37;;;;;;;7.63;5.57;;;;;;;;;;4992359;28;20022;-65
2021/04/29 09:15:05;;;;;;;44.03;29.48;;;;;;;;;;4992800;28;20053;-65
2021/04/29 09:17:31;;;;;;;65.78;45.88;;;;;;;;;;4991784;28;20046;-65
2021/04/29 09:19:57;;;;;;;14.48;10.02;;;;;;;;;;4991138;28;20034;-65
2021/04/29 09:22:23;;;;;;;10.00;8.50;;;;;;;;;;5002738;28;20041;-65
2021/04/29 09:24:49;;;;;;;10.18;6.90;;;;;;;;;;4992779;28;20061;-65
2021/04/29 09:27:20;;;;;;;7.32;5.90;;;;;;;;;;4992789;28;20027;-65
2021/04/29 09:29:54;;;;;;;7.55;5.68;;;;;;;;;;4993756;28;20437;-65
2021/04/29 09:32:28;;;;;;;6.45;4.60;;;;;;;;;;4992068;28;20046;-65
2021/04/29 09:34:54;;;;;;;6.43;4.95;;;;;;;;;;4993283;28;20494;-65
2021/04/29 09:37:30;;;;;;;7.70;4.97;;;;;;;;;;5002622;28;20046;-65
2021/04/29 09:39:56;;;;;;;6.10;4.43;;;;;;;;;;4977210;28;20037;-64
2021/04/29 09:42:29;;;;;;;7.05;5.25;;;;;;;;;;4989322;28;20652;-65
2021/04/29 09:44:55;;;;;;;7.85;6.07;;;;;;;;;;4993502;28;20029;-65
2021/04/29 09:47:21;;;;;;;8.50;6.50;;;;;;;;;;4991442;28;20553;-65
2021/04/29 09:49:47;;;;;;;9.07;6.72;;;;;;;;;;4991348;28;20109;-63
2021/04/29 09:52:20;;;;;;;9.20;7.20;;;;;;;;;;4991016;28;20389;-63
2021/04/29 09:54:46;;;;;;;13.13;8.15;;;;;;;;;;4991255;28;20023;-63
2021/04/29 09:57:16;;;;;;;7.75;5.53;;;;;;;;;;4993447;28;20125;-63
2021/04/29 09:59:44;;;;;;;5.63;4.28;;;;;;;;;;4990675;28;20422;-63
2021/04/29 10:02:10;;;;;;;;;;;;;;;;;;4991056;28;20092;-63
2021/04/29 10:04:37;;;;;;;6.82;5.13;;;;;;;;;;4990499;28;20365;-63
2021/04/29 10:07:03;;;;;;;7.53;5.93;;;;;;;;;;4990916;28;20402;-63
2021/04/29 10:09:33;;;;;;;10.80;7.00;;;;;;;;;;4994524;28;20711;-63
2021/04/29 10:12:02;;;;;;;8.60;6.63;;;;;;;;;;4992031;28;20088;-63
2021/04/29 10:14:32;;;;;;;7.97;6.53;;;;;;;;;;4987481;28;20035;-63
2021/04/29 10:16:58;;;;;;;8.82;6.68;;;;;;;;;;4987837;28;20027;-62
2021/04/29 10:19:25;;;;;;;9.23;7.00;;;;;;;;;;4984538;28;20461;-61
2021/04/29 10:21:50;;;;;;;10.38;7.05;;;;;;;;;;4987538;28;20058;-62
2021/04/29 10:24:16;;;;;;;10.57;7.68;;;;;;;;;;4967969;28;20090;-64
2021/04/29 10:26:42;;;;;;;8.80;6.97;;;;;;;;;;4984973;28;20034;-63
2021/04/29 10:29:11;;;;;;;8.48;6.40;;;;;;;;;;4979095;28;20027;-64
2021/04/29 10:31:37;;;;;;;8.50;5.72;;;;;;;;;;4980287;28;20026;-64
2021/04/29 10:34:04;;;;;;;8.77;5.85;;;;;;;;;;4988822;28;20023;-64
2021/04/29 10:36:40;;;;;;;7.60;6.25;;;;;;;;;;4989755;28;20470;-63
2021/04/29 10:39:16;;;;;;;7.40;5.38;;;;;;;;;;4992104;28;20042;-64
2021/04/29 10:41:43;;;;;;;5.90;4.07;;;;;;;;;;4990760;28;20037;-63
2021/04/29 10:44:13;;;;;;;6.97;5.47;;;;;;;;;;4989495;28;20045;-63
2021/04/29 10:46:40;;;;;;;7.95;5.65;;;;;;;;;;4989470;28;20034;-63
2021/04/29 10:49:07;;;;;;;7.13;5.90;;;;;;;;;;4990793;28;20031;-63
2021/04/29 10:51:47;;;;;;;8.10;5.85;;;;;;;;;;4973877;28;20413;-63
2021/04/29 10:54:16;;;;;;;7.78;5.78;;;;;;;;;;4989603;28;20030;-64
2021/04/29 10:56:43;;;;;;;9.55;5.38;;;;;;;;;;4998083;28;20396;-64
2021/04/29 10:59:10;;;;;;;7.75;6.03;;;;;;;;;;4992550;28;20413;-64
2021/04/29 11:01:41;;;;;;;6.85;5.15;;;;;;;;;;4989945;28;20097;-64
2021/04/29 11:04:17;;;;;;;7.35;5.00;;;;;;;;;;4987930;28;20029;-66
2021/04/29 11:06:43;;;;;;;7.32;5.25;;;;;;;;;;4990502;28;20042;-63
2021/04/29 11:09:20;;;;;;;6.53;4.90;;;;;;;;;;4992879;28;20018;-67
2021/04/29 11:11:47;;;;;;;6.25;4.80;;;;;;;;;;4991533;28;20066;-67
2021/04/29 11:14:15;;;;;;;6.00;4.28;;;;;;;;;;4989011;28;20106;-66
2021/04/29 11:16:59;;;;;;;6.20;4.57;;;;;;;;;;4989028;28;20049;-67
2021/04/29 11:19:39;;;;;;;6.25;4.55;;;;;;;;;;4989565;28;20022;-67
2021/04/29 11:22:06;;;;;;;4.80;3.63;;;;;;;;;;4989489;28;20056;-67
2021/04/29 11:24:33;;;;;;;4.47;2.92;;;;;;;;;;4991621;28;20047;-67
2021/04/29 11:26:59;;;;;;;5.03;3.47;;;;;;;;;;4990723;28;20034;-67
2021/04/29 11:29:34;;;;;;;3.70;2.80;;;;;;;;;;4989339;28;20478;-67
2021/04/29 11:32:00;;;;;;;4.28;3.13;;;;;;;;;;4989498;28;20041;-67
2021/04/29 11:34:26;;;;;;;3.10;2.78;;;;;;;;;;4977381;28;20472;-68
2021/04/29 11:36:59;;;;;;;5.20;3.30;;;;;;;;;;4987344;28;20053;-67
2021/04/29 11:39:25;;;;;;;6.85;3.90;;;;;;;;;;4991732;28;20022;-67
2021/04/29 11:41:51;;;;;;;5.07;3.80;;;;;;;;;;4985043;28;20033;-67
2021/04/29 11:44:17;;;;;;;5.25;3.85;;;;;;;;;;4971457;28;20038;-67
2021/04/29 11:46:43;;;;;;;5.28;3.90;;;;;;;;;;4988674;28;20022;-67
2021/04/29 11:49:10;;;;;;;4.88;3.70;;;;;;;;;;4973601;28;20470;-67
2021/04/29 11:51:49;;;;;;;3.20;2.40;;;;;;;;;;4973403;28;20375;-67
2021/04/29 11:54:19;;;;;;;2.78;2.35;;;;;;;;;;4993029;28;20205;-67
2021/04/29 11:56:45;;;;;;;4.75;3.22;;;;;;;;;;4989479;28;20445;-68
2021/04/29 11:59:11;;;;;;;4.95;3.50;;;;;;;;;;4988484;28;20023;-68
2021/04/29 12:01:38;;;;;;;4.65;3.20;;;;;;;;;;4989133;28;20029;-66
2021/04/29 12:04:14;;;;;;;5.38;4.20;;;;;;;;;;4989105;28;20022;-68
2021/04/29 12:06:49;;;;;;;10.13;5.85;;;;;;;;;;4988293;28;20129;-68
2021/04/29 12:09:15;;;;;;;5.65;4.10;;;;;;;;;;4993209;28;20544;-68
2021/04/29 12:11:41;;;;;;;7.43;5.43;;;;;;;;;;4987891;28;20042;-66
2021/04/29 12:14:07;;;;;;;7.53;5.32;;;;;;;;;;4987850;28;20022;-68
2021/04/29 12:16:33;;;;;;;3.65;2.20;;;;;;;;;;4973253;28;20092;-68
2021/04/29 12:18:59;;;;;;;6.15;3.58;;;;;;;;;;4988370;28;20031;-68
2021/04/29 12:21:28;;;;;;;4.40;3.38;;;;;;;;;;4990936;28;20014;-68
2021/04/29 12:23:53;;;;;;;;;;;;;;;;;;4991539;28;20062;-68
2021/04/29 12:26:28;;;;;;;4.65;3.22;;;;;;;;;;4988693;28;19917;-68
2021/04/29 12:28:58;;;;;;;4.35;3.08;;;;;;;;;;4987665;28;20026;-67
2021/04/29 12:31:24;;;;;;;5.72;3.95;;;;;;;;;;4987026;28;20034;-68
2021/04/29 12:33:51;;;;;;;4.05;2.85;;;;;;;;;;4988530;28;20091;-67
2021/04/29 12:36:17;;;;;;;8.88;5.88;;;;;;;;;;4991379;28;20022;-67
2021/04/29 12:38:43;;;;;;;6.45;5.07;;;;;;;;;;4988186;28;20494;-67
2021/04/29 12:41:10;;;;;;;5.68;4.32;;;;;;;;;;4988307;28;20027;-67
2021/04/29 12:43:38;;;;;;;5.85;3.95;;;;;;;;;;4988174;28;20464;-67
2021/04/29 12:46:05;;;;;;;2.87;2.27;;;;;;;;;;4988052;28;20506;-67
2021/04/29 12:48:35;;;;;;;4.03;2.60;;;;;;;;;;4989826;28;20385;-67
2021/04/29 12:51:03;;;;;;;3.40;2.42;;;;;;;;;;4988923;28;20026;-67
2021/04/29 12:53:29;;;;;;;4.35;3.22;;;;;;;;;;4988426;28;20498;-68
2021/04/29 12:55:55;;;;;;;5.65;3.00;;;;;;;;;;4987108;28;20104;-69
2021/04/29 12:58:29;;;;;;;4.32;2.80;;;;;;;;;;4988509;28;20065;-68
2021/04/29 13:00:55;;;;;;;4.95;3.00;;;;;;;;;;4975695;28;20521;-68
2021/04/29 13:03:37;;;;;;;4.85;3.38;;;;;;;;;;4984347;28;20041;-68
2021/04/29 13:06:05;;;;;;;7.72;5.07;;;;;;;;;;4988545;28;20393;-68
2021/04/29 13:08:44;;;;;;;5.75;4.70;;;;;;;;;;4987365;28;20134;-68
2021/04/29 13:11:10;;;;;;;7.80;5.65;;;;;;;;;;4988875;28;20092;-68
2021/04/29 13:13:36;;;;;;;11.43;6.00;;;;;;;;;;4988683;28;20440;-67
2021/04/29 13:16:02;;;;;;;7.68;5.80;;;;;;;;;;4988175;28;20057;-68
2021/04/29 13:18:28;;;;;;;7.90;5.63;;;;;;;;;;4989749;28;20044;-68
2021/04/29 13:20:54;;;;;;;6.53;4.82;;;;;;;;;;4989072;28;20018;-68
2021/04/29 13:23:21;;;;;;;6.13;4.88;;;;;;;;;;4987379;28;20070;-68
2021/04/29 13:25:49;;;;;;;6.50;4.80;;;;;;;;;;4987452;28;20049;-68
2021/04/29 13:28:16;;;;;;;6.13;4.90;;;;;;;;;;4988452;28;20478;-68
2021/04/29 13:30:42;;;;;;;6.30;5.03;;;;;;;;;;4988778;28;20058;-68
2021/04/29 13:33:10;;;;;;;7.55;5.03;;;;;;;;;;4990034;28;20054;-68
2021/04/29 13:35:36;;;;;;;4.85;4.15;;;;;;;;;;4987706;28;20070;-68
2021/04/29 13:38:02;;;;;;;5.53;3.90;;;;;;;;;;4987629;28;20038;-68
2021/04/29 13:40:28;;;;;;;5.70;4.32;;;;;;;;;;4987843;28;20029;-68
2021/04/29 13:42:54;;;;;;;6.03;4.18;;;;;;;;;;4989129;28;20042;-68
2021/04/29 13:45:20;;;;;;;4.30;3.45;;;;;;;;;;4989789;28;20393;-68
2021/04/29 13:47:46;;;;;;;5.25;3.78;;;;;;;;;;4989460;28;20089;-68
2021/04/29 13:50:12;;;;;;;4.97;4.05;;;;;;;;;;4987449;28;20026;-68
2021/04/29 13:52:38;;;;;;;6.65;4.10;;;;;;;;;;4987520;28;20040;-68
2021/04/29 13:55:05;;;;;;;7.82;4.43;;;;;;;;;;4987654;28;20469;-68
2021/04/29 13:57:31;;;;;;;5.60;3.83;;;;;;;;;;4989570;28;20042;-68
2021/04/29 13:59:58;;;;;;;6.43;4.82;;;;;;;;;;4976072;28;20018;-68
2021/04/29 14:02:24;;;;;;;4.95;3.92;;;;;;;;;;4991041;28;20125;-68
2021/04/29 14:04:50;;;;;;;4.50;3.80;;;;;;;;;;4991043;28;20031;-68
2021/04/29 14:07:16;;;;;;;4.80;3.40;;;;;;;;;;4990974;28;20379;-68
2021/04/29 14:09:42;;;;;;;7.40;3.45;;;;;;;;;;4992968;28;20018;-68
2021/04/29 14:12:08;;;;;;;6.22;4.45;;;;;;;;;;4992766;28;20409;-68
2021/04/29 14:14:34;;;;;;;7.40;4.43;;;;;;;;;;4990525;28;20030;-68
2021/04/29 14:17:00;;;;;;;6.47;4.63;;;;;;;;;;4991000;28;20501;-68
2021/04/29 14:19:26;;;;;;;5.53;3.50;;;;;;;;;;4990698;28;20027;-68
2021/04/29 14:21:52;;;;;;;5.32;3.53;;;;;;;;;;4990235;28;20030;-68
2021/04/29 14:24:18;;;;;;;6.05;3.97;;;;;;;;;;4993760;28;20065;-68
2021/04/29 14:26:44;;;;;;;6.05;3.63;;;;;;;;;;4990762;28;20198;-68